createdAt,value
2023-05-05T00:01:24.588Z,53.10
2023-05-05T00:03:51.722Z,53.10
2023-05-05T00:06:18.433Z,53.30
2023-05-05T00:08:46.129Z,53.20
2023-05-05T00:11:12.838Z,53.30
2023-05-05T00:13:39.527Z,53.40
2023-05-05T00:46:53.335Z,55.60
2023-05-05T00:49:19.962Z,55.80
2023-05-05T00:51:46.691Z,55.90
2023-05-05T00:54:13.344Z,56.10
2023-05-05T00:56:40.209Z,56.30
2023-05-05T00:59:07.083Z,57.10
2023-05-05T01:01:33.790Z,57.60
2023-05-05T01:04:00.455Z,58.10
2023-05-05T01:06:46.010Z,58.70
2023-05-05T01:09:36.522Z,61.20
2023-05-05T01:12:34.314Z,59.70
2023-05-05T01:15:11.004Z,59.50
2023-05-05T01:17:43.552Z,59.70
2023-05-05T01:20:20.828Z,60.00
2023-05-05T01:22:53.088Z,59.80
2023-05-05T01:25:25.646Z,60.50
2023-05-05T01:28:01.974Z,60.40
2023-05-05T01:30:58.692Z,60.40
2023-05-05T01:33:29.041Z,60.50
2023-05-05T01:35:59.738Z,61.10
2023-05-05T01:38:34.743Z,61.30
2023-05-05T01:41:24.139Z,61.40
2023-05-05T01:43:52.678Z,61.60
2023-05-05T01:46:23.634Z,61.70
2023-05-05T01:48:52.701Z,61.70
2023-05-05T01:51:23.007Z,62.00
2023-05-05T01:53:52.848Z,62.00
2023-05-05T01:56:22.621Z,62.30
2023-05-05T01:58:49.866Z,62.50
2023-05-05T02:01:20.867Z,62.70
2023-05-05T02:03:49.171Z,63.50
2023-05-05T02:06:16.372Z,63.20
2023-05-05T02:08:44.683Z,63.70
2023-05-05T02:11:12.672Z,63.90
2023-05-05T02:13:42.794Z,65.90
2023-05-05T02:16:10.270Z,66.20
2023-05-05T02:18:38.853Z,65.80
2023-05-05T02:21:07.468Z,65.50
2023-05-05T02:23:34.217Z,65.70
2023-05-05T02:26:06.063Z,65.90
2023-05-05T02:28:42.059Z,66.60
2023-05-05T02:31:12.033Z,66.80
2023-05-05T02:33:40.213Z,67.10
2023-05-05T02:36:14.471Z,67.70
2023-05-05T02:38:43.950Z,67.90
2023-05-05T02:41:16.939Z,68.00
2023-05-05T02:43:44.537Z,68.30
2023-05-05T02:46:11.268Z,68.40
2023-05-05T02:48:37.987Z,68.70
2023-05-05T02:51:05.734Z,69.10
2023-05-05T02:53:32.752Z,69.20
2023-05-05T02:56:17.684Z,69.70
2023-05-05T02:58:58.188Z,70.00
2023-05-05T03:01:47.792Z,70.10
2023-05-05T03:04:29.265Z,70.30
2023-05-05T03:07:01.494Z,70.30
2023-05-05T03:09:36.778Z,70.70
2023-05-05T03:12:07.076Z,70.90
2023-05-05T03:14:38.844Z,71.00
2023-05-05T03:17:06.538Z,71.20
2023-05-05T03:19:36.808Z,71.30
2023-05-05T03:22:04.217Z,71.30
2023-05-05T03:24:30.862Z,71.30
2023-05-05T03:26:57.665Z,71.40
2023-05-05T03:29:25.375Z,71.80
2023-05-05T03:31:52.178Z,72.00
2023-05-05T03:34:18.847Z,72.30
2023-05-05T03:36:45.538Z,73.00
2023-05-05T03:39:12.184Z,72.80
2023-05-05T03:41:38.820Z,72.70
2023-05-05T03:44:05.418Z,72.90
2023-05-05T03:46:32.038Z,72.90
2023-05-05T03:48:58.794Z,73.20
2023-05-05T03:51:25.440Z,73.30
2023-05-05T03:53:52.231Z,73.20
2023-05-05T03:56:18.884Z,73.20
2023-05-05T03:58:45.898Z,73.30
2023-05-05T04:01:12.538Z,73.40
2023-05-05T04:03:39.369Z,73.40
2023-05-05T04:06:06.307Z,73.30
2023-05-05T04:08:33.009Z,73.50
2023-05-05T04:11:02.372Z,73.50
2023-05-05T04:13:29.525Z,73.70
2023-05-05T04:15:56.384Z,73.70
2023-05-05T04:18:23.184Z,73.70
2023-05-05T04:20:49.834Z,74.00
2023-05-05T04:23:16.638Z,74.00
2023-05-05T04:25:43.315Z,74.00
2023-05-05T04:28:09.931Z,74.40
2023-05-05T04:30:36.690Z,74.60
2023-05-05T04:33:03.585Z,74.70
2023-05-05T04:35:30.687Z,74.50
2023-05-05T04:37:57.332Z,74.80
2023-05-05T04:40:24.773Z,74.80
2023-05-05T04:42:51.481Z,74.60
2023-05-05T04:45:18.106Z,74.70
2023-05-05T04:47:44.868Z,74.80
2023-05-05T04:50:12.026Z,74.50
2023-05-05T04:52:38.718Z,74.50
2023-05-05T04:55:06.011Z,75.40
2023-05-05T04:57:32.689Z,75.40
2023-05-05T05:00:00.822Z,74.90
2023-05-05T05:02:27.561Z,74.20
2023-05-05T05:04:54.296Z,73.00
2023-05-05T05:07:21.231Z,70.80
2023-05-05T05:09:47.892Z,69.20
2023-05-05T05:12:14.582Z,68.00
2023-05-05T05:14:41.358Z,67.30
2023-05-05T05:17:08.046Z,67.00
2023-05-05T05:19:34.767Z,68.00
2023-05-05T05:22:01.522Z,66.80
2023-05-05T05:24:28.350Z,66.80
2023-05-05T05:26:54.978Z,66.80
2023-05-05T05:29:22.013Z,66.70
2023-05-05T05:31:50.074Z,67.70
2023-05-05T05:34:16.777Z,67.00
2023-05-05T05:36:43.382Z,67.40
2023-05-05T05:39:10.065Z,67.50
2023-05-05T05:41:36.686Z,67.70
2023-05-05T05:44:03.328Z,69.10
2023-05-05T05:46:30.050Z,68.20
2023-05-05T05:48:57.235Z,67.60
2023-05-05T05:51:23.913Z,67.80
2023-05-05T05:53:51.728Z,68.10
2023-05-05T05:56:18.426Z,67.80
2023-05-05T05:58:45.265Z,67.60
2023-05-05T06:01:12.058Z,66.80
2023-05-05T06:03:38.944Z,66.60
2023-05-05T06:06:05.957Z,66.50
2023-05-05T06:08:32.666Z,66.30
2023-05-05T06:11:00.520Z,65.90
2023-05-05T06:13:27.259Z,65.40
2023-05-05T06:15:53.901Z,65.30
2023-05-05T06:18:20.614Z,64.60
2023-05-05T06:20:50.693Z,64.10
2023-05-05T06:23:17.340Z,63.70
2023-05-05T06:25:43.975Z,64.30
2023-05-05T06:28:10.926Z,63.60
2023-05-05T06:30:37.572Z,61.70
2023-05-05T06:33:04.212Z,62.70
2023-05-05T06:35:30.902Z,63.40
2023-05-05T06:37:57.678Z,61.80
2023-05-05T06:40:24.401Z,62.00
2023-05-05T06:42:51.071Z,61.90
2023-05-05T06:45:18.216Z,61.50
2023-05-05T06:47:44.954Z,60.90
2023-05-05T06:50:11.773Z,61.90
2023-05-05T06:52:38.374Z,61.50
2023-05-05T06:55:05.939Z,61.70
2023-05-05T06:57:32.668Z,60.60
2023-05-05T06:59:59.918Z,61.00
2023-05-05T07:02:27.029Z,61.20
2023-05-05T07:04:55.454Z,60.60
2023-05-05T07:07:22.489Z,61.60
2023-05-05T07:09:49.117Z,61.40
2023-05-05T07:12:15.789Z,61.80
2023-05-05T07:14:42.486Z,60.50
2023-05-05T07:17:09.098Z,60.70
2023-05-05T07:19:36.099Z,60.70
2023-05-05T07:22:02.992Z,60.70
2023-05-05T07:24:29.697Z,60.40
2023-05-05T07:26:56.336Z,60.10
2023-05-05T07:29:22.981Z,58.60
2023-05-05T07:31:49.682Z,59.10
2023-05-05T07:34:16.463Z,59.20
2023-05-05T07:36:44.057Z,59.00
2023-05-05T07:39:10.998Z,58.70
2023-05-05T07:41:37.614Z,58.90
2023-05-05T07:44:04.582Z,59.00
2023-05-05T07:46:31.346Z,57.30
2023-05-05T07:48:59.146Z,56.70
2023-05-05T07:51:26.452Z,56.00
2023-05-05T07:53:53.057Z,57.00
2023-05-05T07:56:21.675Z,57.10
2023-05-05T07:58:48.713Z,57.80
2023-05-05T08:01:15.965Z,57.60
2023-05-05T08:03:42.734Z,57.20
2023-05-05T08:06:10.011Z,57.50
2023-05-05T08:08:37.015Z,57.30
2023-05-05T08:11:04.394Z,55.50
2023-05-05T08:13:31.200Z,56.70
2023-05-05T08:15:57.942Z,56.20
2023-05-05T08:18:24.741Z,54.80
2023-05-05T08:20:51.981Z,55.10
2023-05-05T08:23:18.760Z,54.60
2023-05-05T08:25:45.422Z,53.80
2023-05-05T08:28:12.003Z,54.10
2023-05-05T08:30:39.072Z,53.40
2023-05-05T08:33:05.777Z,53.40
2023-05-05T08:35:32.375Z,53.10
2023-05-05T08:37:59.375Z,52.10
2023-05-05T08:40:32.015Z,50.40
2023-05-05T08:42:59.284Z,51.80
2023-05-05T08:45:27.830Z,52.30
2023-05-05T08:48:03.010Z,52.60
2023-05-05T08:50:30.626Z,51.70
2023-05-05T08:53:11.526Z,52.00
2023-05-05T08:55:59.133Z,52.80
2023-05-05T08:58:28.793Z,52.60
2023-05-05T09:00:56.794Z,53.00
2023-05-05T09:03:24.791Z,53.40
2023-05-05T09:05:51.585Z,53.50
2023-05-05T09:08:18.567Z,54.20
2023-05-05T09:10:45.950Z,55.00
2023-05-05T09:13:28.133Z,55.20
2023-05-05T09:15:54.725Z,55.50
2023-05-05T09:18:21.480Z,55.90
2023-05-05T09:20:48.207Z,55.90
2023-05-05T09:23:17.238Z,55.30
2023-05-05T09:25:46.331Z,55.00
2023-05-05T09:28:17.472Z,55.50
2023-05-05T09:30:46.539Z,56.80
2023-05-05T09:33:13.705Z,56.00
2023-05-05T09:35:50.978Z,55.30
2023-05-05T09:38:22.112Z,54.90
2023-05-05T09:40:50.833Z,54.30
2023-05-05T09:43:19.296Z,54.40
2023-05-05T09:45:46.163Z,54.60
2023-05-05T09:48:26.177Z,55.00
2023-05-05T09:50:53.841Z,55.30
2023-05-05T09:53:20.793Z,55.50
2023-05-05T09:55:55.015Z,58.90
2023-05-05T09:58:29.743Z,60.30
2023-05-05T10:00:57.682Z,61.70
2023-05-05T10:03:25.164Z,62.30
2023-05-05T10:05:56.953Z,63.40
2023-05-05T10:08:26.326Z,64.70
2023-05-05T10:11:06.446Z,65.70
2023-05-05T10:13:37.708Z,66.90
2023-05-05T10:16:07.750Z,68.00
2023-05-05T10:18:35.486Z,69.20
2023-05-05T10:21:03.723Z,69.50
2023-05-05T10:23:46.260Z,69.70
2023-05-05T10:26:14.946Z,69.90
2023-05-05T10:28:45.707Z,70.90
2023-05-05T10:31:25.702Z,70.70
2023-05-05T10:34:20.821Z,71.40
2023-05-05T10:36:48.961Z,72.10
2023-05-05T10:39:18.026Z,72.60
2023-05-05T10:41:45.056Z,73.00
2023-05-05T10:44:13.507Z,73.20
2023-05-05T10:46:41.307Z,73.70
2023-05-05T10:49:17.124Z,73.80
2023-05-05T10:51:49.397Z,73.90
2023-05-05T10:54:39.648Z,74.20
2023-05-05T10:57:10.503Z,74.70
2023-05-05T10:59:37.305Z,75.00
2023-05-05T11:02:28.873Z,75.70
2023-05-05T11:05:21.174Z,76.00
2023-05-05T11:07:49.911Z,76.30
2023-05-05T11:10:20.193Z,76.90
2023-05-05T11:12:57.868Z,76.80
2023-05-05T11:15:35.440Z,77.30
2023-05-05T11:18:05.846Z,77.80
2023-05-05T11:20:36.871Z,78.00
2023-05-05T11:23:22.024Z,79.50
2023-05-05T11:25:48.863Z,78.90
2023-05-05T11:28:17.748Z,79.10
2023-05-05T11:30:57.906Z,79.20
2023-05-05T11:33:29.066Z,79.30
2023-05-05T11:36:07.305Z,79.30
2023-05-05T11:38:58.935Z,79.50
2023-05-05T11:41:34.402Z,79.60
2023-05-05T11:44:14.066Z,80.20
2023-05-05T11:47:01.517Z,80.30
2023-05-05T11:49:29.474Z,80.30
2023-05-05T11:52:00.848Z,80.60
2023-05-05T11:54:28.339Z,80.80
2023-05-05T11:56:57.190Z,80.80
2023-05-05T11:59:23.886Z,81.00
2023-05-05T12:01:50.915Z,81.30
2023-05-05T12:04:19.091Z,81.60
2023-05-05T12:06:46.543Z,81.70
2023-05-05T12:09:18.011Z,81.80
2023-05-05T12:11:59.674Z,81.70
2023-05-05T12:14:26.895Z,81.60
2023-05-05T12:17:01.391Z,81.70
2023-05-05T12:19:30.308Z,82.10
2023-05-05T12:21:57.124Z,81.40
2023-05-05T12:24:23.973Z,81.70
2023-05-05T12:26:50.582Z,81.70
2023-05-05T12:29:25.190Z,81.80
2023-05-05T12:31:51.989Z,81.70
2023-05-05T12:34:19.137Z,81.90
2023-05-05T12:36:46.224Z,81.80
2023-05-05T12:39:13.021Z,82.10
2023-05-05T12:41:39.703Z,82.10
2023-05-05T12:44:06.641Z,82.20
2023-05-05T12:46:45.582Z,81.90
2023-05-05T12:49:12.313Z,82.10
2023-05-05T12:51:51.692Z,82.20
2023-05-05T12:54:18.335Z,82.40
2023-05-05T12:56:47.273Z,82.80
2023-05-05T12:59:22.664Z,82.60
2023-05-05T13:01:56.859Z,82.60
2023-05-05T13:04:25.685Z,83.20
2023-05-05T13:07:11.550Z,83.00
2023-05-05T13:09:38.360Z,83.30
2023-05-05T13:12:05.766Z,83.70
2023-05-05T13:14:32.531Z,83.90
2023-05-05T13:16:59.302Z,83.50
2023-05-05T13:19:26.255Z,84.00
2023-05-05T13:21:53.477Z,83.70
2023-05-05T13:24:28.581Z,83.70
2023-05-05T13:26:58.133Z,83.60
2023-05-05T13:29:29.514Z,83.60
2023-05-05T13:31:57.280Z,83.40
2023-05-05T13:34:23.925Z,84.10
2023-05-05T13:36:50.631Z,83.60
2023-05-05T13:39:17.412Z,83.70
2023-05-05T13:41:44.701Z,83.60
2023-05-05T13:44:11.789Z,83.40
2023-05-05T13:46:38.441Z,83.20
2023-05-05T13:49:05.172Z,83.00
2023-05-05T13:51:31.805Z,83.00
2023-05-05T13:53:58.460Z,83.10
2023-05-05T13:56:26.355Z,83.20
2023-05-05T13:58:53.308Z,83.40
2023-05-05T14:01:20.196Z,83.40
2023-05-05T14:03:46.889Z,83.20
2023-05-05T14:06:13.602Z,83.20
2023-05-05T14:08:40.293Z,83.10
2023-05-05T14:11:06.873Z,83.40
2023-05-05T14:13:33.529Z,83.70
2023-05-05T14:16:00.249Z,83.70
2023-05-05T14:18:27.986Z,83.30
2023-05-05T14:20:54.681Z,82.80
2023-05-05T14:23:21.338Z,83.20
2023-05-05T14:25:47.980Z,83.40
2023-05-05T14:28:14.723Z,83.40
2023-05-05T14:30:41.444Z,83.60
2023-05-05T14:33:08.236Z,83.40
2023-05-05T14:35:35.060Z,83.50
2023-05-05T14:38:01.691Z,83.00
2023-05-05T14:40:29.495Z,81.80
2023-05-05T14:42:56.139Z,82.90
2023-05-05T14:45:22.951Z,82.40
2023-05-05T14:47:49.779Z,83.10
2023-05-05T14:50:16.361Z,83.80
2023-05-05T14:52:44.346Z,83.40
2023-05-05T14:55:11.407Z,82.90
2023-05-05T14:57:38.716Z,82.00
2023-05-05T15:00:07.100Z,80.90
2023-05-05T15:02:33.944Z,81.60
2023-05-05T15:05:00.872Z,81.70
2023-05-05T15:07:30.637Z,81.90
2023-05-05T15:09:57.439Z,81.60
2023-05-05T15:12:24.211Z,81.50
2023-05-05T15:14:50.884Z,81.50
2023-05-05T15:17:17.626Z,81.50
2023-05-05T15:19:44.224Z,81.80
2023-05-05T15:22:10.882Z,81.70
2023-05-05T15:24:37.621Z,81.40
2023-05-05T15:27:04.393Z,79.90
2023-05-05T15:29:31.090Z,80.50
2023-05-05T15:31:57.857Z,80.40
2023-05-05T15:34:24.636Z,80.40
2023-05-05T15:36:51.485Z,80.40
2023-05-05T15:39:18.679Z,80.60
2023-05-05T15:41:45.413Z,80.00
2023-05-05T15:44:12.375Z,79.30
2023-05-05T15:46:39.708Z,79.20
2023-05-05T15:49:06.856Z,79.20
2023-05-05T15:51:33.471Z,79.40
2023-05-05T15:54:00.310Z,79.70
2023-05-05T15:56:27.552Z,79.20
2023-05-05T15:58:54.340Z,79.80
2023-05-05T16:01:21.032Z,80.20
2023-05-05T16:03:47.686Z,78.90
2023-05-05T16:06:14.427Z,79.50
2023-05-05T16:08:41.099Z,78.00
2023-05-05T16:11:07.708Z,78.00
2023-05-05T16:13:34.415Z,78.10
2023-05-05T16:16:01.367Z,78.00
2023-05-05T16:18:27.965Z,78.10
2023-05-05T16:20:54.615Z,77.10
2023-05-05T16:23:21.391Z,77.30
2023-05-05T16:25:48.019Z,77.30
2023-05-05T16:28:14.624Z,76.90
2023-05-05T16:30:42.877Z,76.70
2023-05-05T16:33:09.701Z,76.80
2023-05-05T16:35:36.652Z,76.90
2023-05-05T16:38:03.438Z,77.00
2023-05-05T16:40:30.159Z,77.00
2023-05-05T16:42:56.783Z,76.50
2023-05-05T16:45:24.336Z,75.80
2023-05-05T16:47:51.347Z,75.60
2023-05-05T16:50:18.153Z,75.70
2023-05-05T16:52:44.760Z,76.30
2023-05-05T16:55:11.533Z,76.20
2023-05-05T16:57:38.296Z,76.80
2023-05-05T17:00:09.189Z,77.30
2023-05-05T17:02:35.891Z,77.60
2023-05-05T17:05:03.061Z,77.40
2023-05-05T17:07:29.737Z,77.30
2023-05-05T17:09:56.386Z,77.10
2023-05-05T17:12:23.007Z,77.00
2023-05-05T17:14:49.678Z,76.90
2023-05-05T17:17:16.379Z,76.80
2023-05-05T17:19:43.021Z,76.30
2023-05-05T17:22:09.607Z,76.10
2023-05-05T17:24:36.341Z,76.10
2023-05-05T17:27:03.199Z,75.90
2023-05-05T17:29:29.834Z,76.20
2023-05-05T17:31:56.461Z,76.00
2023-05-05T17:34:23.123Z,76.10
2023-05-05T17:36:49.774Z,76.10
2023-05-05T17:39:16.441Z,77.10
2023-05-05T17:41:43.236Z,76.80
2023-05-05T17:44:09.879Z,75.80
2023-05-05T17:46:37.308Z,75.50
2023-05-05T17:49:04.015Z,75.80
2023-05-05T17:51:31.512Z,76.00
2023-05-05T17:53:58.143Z,76.00
2023-05-05T17:56:24.800Z,76.00
2023-05-05T17:58:51.437Z,76.60
2023-05-05T18:01:25.626Z,77.10
2023-05-05T18:03:52.747Z,77.40
2023-05-05T18:06:19.392Z,77.50
2023-05-05T18:08:46.595Z,78.60
2023-05-05T18:11:13.321Z,77.90
2023-05-05T18:13:39.956Z,78.30
2023-05-05T18:16:06.872Z,78.50
2023-05-05T18:18:33.777Z,78.70
2023-05-05T18:21:00.705Z,78.90
2023-05-05T18:23:27.385Z,79.00
2023-05-05T18:25:54.054Z,79.30
2023-05-05T18:28:20.836Z,79.60
2023-05-05T18:30:47.539Z,80.00
2023-05-05T18:33:14.243Z,80.00
2023-05-05T18:35:40.915Z,80.10
2023-05-05T18:38:07.571Z,80.30
2023-05-05T18:40:34.307Z,80.50
2023-05-05T18:43:01.137Z,80.50
2023-05-05T18:45:27.855Z,80.70
2023-05-05T18:47:54.700Z,81.00
2023-05-05T18:50:21.432Z,81.10
2023-05-05T18:52:48.187Z,81.10
2023-05-05T18:55:14.855Z,81.00
2023-05-05T18:57:41.419Z,81.00
2023-05-05T19:00:09.347Z,81.70
2023-05-05T19:02:36.089Z,81.90
2023-05-05T19:05:03.801Z,82.20
2023-05-05T19:10:17.144Z,82.00
2023-05-05T19:12:44.378Z,81.90
2023-05-05T19:15:13.037Z,82.10
2023-05-05T19:17:39.744Z,82.50
2023-05-05T19:20:07.523Z,82.80
2023-05-05T19:22:34.142Z,83.10
2023-05-05T19:25:00.960Z,83.20
2023-05-05T19:27:27.548Z,83.10
2023-05-05T19:29:54.191Z,83.20
2023-05-05T19:32:21.235Z,83.10
2023-05-05T19:34:48.317Z,83.20
2023-05-05T19:37:15.140Z,83.10
2023-05-05T19:39:44.266Z,83.00
2023-05-05T19:42:11.378Z,83.10
2023-05-05T19:44:38.004Z,83.20
2023-05-05T19:47:05.101Z,83.20
2023-05-05T19:49:31.990Z,83.40
2023-05-05T19:51:58.926Z,83.50
2023-05-05T19:54:26.227Z,83.60
2023-05-05T19:56:54.150Z,83.60
2023-05-05T19:59:21.940Z,83.80
2023-05-05T20:01:48.590Z,84.00
2023-05-05T20:04:15.582Z,84.00
2023-05-05T20:06:42.253Z,84.10
2023-05-05T20:09:09.118Z,83.90
2023-05-05T20:11:35.833Z,83.80
2023-05-05T20:14:02.478Z,83.90
2023-05-05T20:16:29.200Z,84.20
2023-05-05T20:18:55.958Z,84.30
2023-05-05T20:21:22.734Z,84.50
2023-05-05T20:23:49.398Z,84.40
2023-05-05T20:26:16.307Z,84.60
2023-05-05T20:28:45.202Z,84.70
2023-05-05T20:31:14.121Z,84.80
2023-05-05T20:33:40.873Z,84.90
2023-05-05T20:36:07.694Z,84.70
2023-05-05T20:38:34.345Z,84.70
2023-05-05T20:41:01.206Z,84.90
2023-05-05T20:43:27.922Z,84.80
2023-05-05T20:45:54.597Z,85.10
2023-05-05T20:48:21.321Z,85.10
2023-05-05T20:50:47.960Z,85.10
2023-05-05T20:53:16.101Z,85.10
2023-05-05T20:55:42.892Z,85.20
2023-05-05T20:58:09.559Z,85.00
2023-05-05T21:00:36.242Z,85.10
2023-05-05T21:03:04.217Z,85.20
2023-05-05T21:05:34.180Z,85.70
2023-05-05T21:08:01.351Z,85.70
2023-05-05T21:10:28.990Z,85.70
2023-05-05T21:12:55.914Z,85.90
2023-05-05T21:15:22.737Z,86.00
2023-05-05T21:17:49.457Z,85.90
2023-05-05T21:20:16.508Z,85.70
2023-05-05T21:22:43.176Z,85.60
2023-05-05T21:25:15.581Z,85.80
2023-05-05T21:27:42.543Z,86.00
2023-05-05T21:30:11.162Z,86.00
2023-05-05T21:32:38.859Z,85.60
2023-05-05T21:35:06.844Z,85.80
2023-05-05T21:37:33.614Z,86.10
2023-05-05T21:40:00.355Z,86.00
2023-05-05T21:42:30.113Z,85.80
2023-05-05T21:44:56.777Z,85.70
2023-05-05T21:47:23.575Z,85.90
2023-05-05T21:49:50.286Z,86.00
2023-05-05T21:52:17.188Z,85.80
2023-05-05T21:54:44.075Z,85.80
2023-05-05T21:57:10.858Z,85.70
2023-05-05T21:59:37.594Z,85.80
2023-05-05T22:02:04.229Z,86.00
2023-05-05T22:04:30.929Z,85.80
2023-05-05T22:06:58.428Z,85.50
2023-05-05T22:09:25.073Z,85.60
2023-05-05T22:11:51.782Z,85.70
2023-05-05T22:14:18.540Z,85.80
2023-05-05T22:16:45.442Z,86.00
2023-05-05T22:19:12.153Z,86.00
2023-05-05T22:21:38.800Z,86.30
2023-05-05T22:24:07.175Z,86.10
2023-05-05T22:26:33.886Z,86.40
2023-05-05T22:29:00.843Z,86.50
2023-05-05T22:31:27.846Z,86.50
2023-05-05T22:33:54.588Z,86.60
2023-05-05T22:36:21.736Z,86.80
2023-05-05T22:38:48.524Z,87.10
2023-05-05T22:41:15.934Z,87.20
2023-05-05T22:43:42.653Z,87.10
2023-05-05T22:46:09.239Z,87.30
2023-05-05T22:48:35.868Z,87.20
2023-05-05T22:51:03.641Z,87.20
2023-05-05T22:53:30.249Z,87.60
2023-05-05T22:55:58.206Z,88.40
2023-05-05T22:58:25.706Z,87.60
2023-05-05T23:00:52.481Z,87.60
2023-05-05T23:03:19.192Z,87.80
2023-05-05T23:05:45.934Z,87.70
2023-05-05T23:08:12.575Z,87.60
2023-05-05T23:10:39.221Z,87.70
2023-05-05T23:13:05.942Z,87.60
2023-05-05T23:15:32.712Z,87.80
2023-05-05T23:17:59.454Z,87.60
2023-05-05T23:20:26.212Z,87.50
2023-05-05T23:22:52.802Z,88.10
2023-05-05T23:25:19.388Z,88.30
2023-05-05T23:27:46.015Z,88.00
2023-05-05T23:30:13.120Z,88.20
2023-05-05T23:32:39.788Z,88.60
2023-05-05T23:35:07.090Z,88.80
2023-05-05T23:37:33.809Z,88.60
2023-05-05T23:40:00.615Z,88.60
2023-05-05T23:42:27.276Z,88.80
2023-05-05T23:44:53.908Z,88.50
2023-05-05T23:47:20.689Z,88.50
2023-05-05T23:49:47.270Z,88.70
2023-05-05T23:52:13.954Z,88.50
2023-05-05T23:54:40.918Z,88.70
2023-05-05T23:57:07.563Z,88.90
2023-05-05T23:59:34.185Z,88.80
